Meteo Giornale » Osservazioni meteo Italia » Milano-Linate

ore: 15:50 - Osservazioni Meteo Milano-Linate
Lat. 45° 26' N Lon. 9° 17' E Alt. 107 metri s.l.m.

sereno Europe/Rome

16 °C

Sereno

Temp. 24 Ore

2 °C

17 °C

Ovest

9.3 Km/h

Dew point 4 °C

Umidità 44 %

Visibilità  10 Km

Il sole sorge alle ore 07:17

Il sole tramonta alle ore 17:55

Data e Ora Cielo e Fenomeni T °C DP °C Um. % Pres. hPa Vis. km Vento km/h
Oggi h: 15:50 sereno Sereno 16 4 44 1022 10 O 9.3
Oggi h: 15:20 sereno Sereno 16 5 47 1022 10 O 9.3
Oggi h: 14:50 sereno Sereno 15 4 47 1022 10 O 11.1
Oggi h: 14:20 sereno Sereno 15 4 47 1022 10 O/SO 9.3
Oggi h: 13:50 sereno Sereno 15 5 51 1023 10 O/SO 11.1
Oggi h: 13:20 sereno Sereno 14 4 50 1023 10 O/SO 11.1
Oggi h: 12:50 sereno Sereno 13 4 54 1024 10 O/SO 13
Oggi h: 12:20 sereno Sereno 13 5 58 1024 10 O 13
Oggi h: 11:50 sereno Sereno 13 5 58 1024 10 O 13
Oggi h: 11:20 sereno Sereno 12 5 62 1025 10 O/SO 13
Oggi h: 10:50 sereno Sereno 11 5 66 1025 10 O/SO 14.8
Oggi h: 10:20 sereno Sereno 10 5 71 1025 10 O/SO 11.1
Oggi h: 09:50 sereno Sereno 10 5 71 1025 8 O/SO 7.4
Oggi h: 09:20 sereno Sereno 9 5 75 1025 8 O/SO 7.4
Oggi h: 08:50 sereno Sereno 7 5 87 1025 8 N 3.7
Oggi h: 08:20 sereno Sereno 4 3 93 1025 7 N 0
Oggi h: 07:50 foschia Foschia 4 2 86 1024 5 N 1.8
Oggi h: 07:20 sereno Sereno 3 2 93 1024 7 N 3.7
Oggi h: 06:50 sereno Sereno 5 3 86 1024 10 N 5.5
Oggi h: 06:20 sereno Sereno 6 5 93 1024 10 N 3.7
Oggi h: 05:50 sereno Sereno 6 4 86 1024 10 N 5.5
Oggi h: 05:20 sereno Sereno 6 4 86 1024 10 N 5.5
Oggi h: 03:50 sereno Sereno 2 1 93 1025 10 N 3.7
Oggi h: 02:50 sereno Sereno 2 1 93 1025 10 N 3.7
Oggi h: 02:20 sereno Sereno 3 1 86 1025 10 N 5.5
Oggi h: 01:50 sereno Sereno 3 1 86 1025 10 N 3.7
Oggi h: 01:20 sereno Sereno 4 1 80 1025 10 N 3.7
Oggi h: 00:50 sereno Sereno 4 1 80 1025 10 N 3.7
Oggi h: 00:20 sereno Sereno 5 2 80 1025 10 N 3.7
Ieri h: 23:50 sereno Sereno 6 2 75 1025 10 N 3.7
Ieri h: 23:20 sereno Sereno 4 1 80 1026 10 N 5.5
Ieri h: 22:50 sereno Sereno 4 1 80 1026 10 N 3.7
Ieri h: 22:20 sereno Sereno 5 1 75 1026 10 N 3.7
Ieri h: 21:50 sereno Sereno 6 2 75 1026 10 N 3.7
Ieri h: 21:20 sereno Sereno 5 2 80 1026 10 N 3.7
Ieri h: 20:50 sereno Sereno 7 3 75 1025 10 N 1.8
Ieri h: 20:20 sereno Sereno 7 2 70 1025 10 N 1.8
Ieri h: 19:50 sereno Sereno 7 2 70 1025 10 N 1.8
Ieri h: 19:20 sereno Sereno 8 2 65 1025 10 N 1.8
Ieri h: 18:50 sereno Sereno 9 2 61 1025 10 N 1.8
Ieri h: 18:20 sereno Sereno 11 2 53 1025 10 N 3.7
Ieri h: 17:50 sereno Sereno 13 2 47 1025 10 N 5.5
Ieri h: 17:20 sereno Sereno 15 2 41 1025 10 N 5.5
Ieri h: 16:50 sereno Sereno 16 2 38 1025 10 O 7.4
Ieri h: 16:20 sereno Sereno 17 2 36 1025 10 O/SO 9.3
Ieri h: 15:50 sereno Sereno 17 2 36 1025 10 O 9.3